Tingo Maria, Peru
Current Conditions -  °F | °C
As of 2:00 PM on Thursday 23 Oct 2014 (Local Time) from SPCL Reporting Station
Broken Clouds Broken Clouds  
Wind Chill: 88°   Ceiling: 2000
Heat Index: 98°   Visibility: 6mi
Dew Point: 75°   Wind: 7mph
Humidity: 66%   Direction: 350°N
Pressure: 29.8"   Gusts: NA
Location:  9.29°S, 75.99°W
Report Text: SPCL 231900Z 35006KT 9999 BKN020 31/24 Q1009 RMK BIRD HAZARD RWY 02/20 PPTRZ
Loading
Personal Weather Stations






























Interactive Weather Map
Tropical Storm Tracking
New forecast layout! Learn more

10-Day Weather Forecast

Advertisements
Track Severe Weather on mobile